Time;durP1;ratioP1;P1;durP2;ratioP2;P2;SDS_P1;SDS_P2;PMS_P1;PMS_P2;Temp;Humidity;BMP_temperature;BMP_pressure;BME280_temperature;BME280_humidity;BME280_pressure;Samples;Min_cycle;Max_cycle;Signal;HPM_P1;HPM_P2
2022/01/24 00:01:59;;;;;;;5.30;2.87;;;6.50;99.90;;;;;;5012973;28;20180;-69
2022/01/24 00:04:25;;;;;;;4.23;2.87;;;6.50;99.90;;;;;;5013158;28;20415;-69
2022/01/24 00:06:51;;;;;;;7.60;3.90;;;6.50;99.90;;;;;;5013117;28;20296;-68
2022/01/24 00:09:17;;;;;;;7.70;3.10;;;6.50;99.90;;;;;;5012859;28;20521;-69
2022/01/24 00:27:22;;;;;;;6.23;2.73;;;6.50;99.90;;;;;;5011021;28;20410;-70
2022/01/24 00:29:47;;;;;;;4.27;2.50;;;6.50;99.90;;;;;;5012290;28;20933;-69
2022/01/24 00:32:13;;;;;;;3.40;1.70;;;6.60;99.90;;;;;;4994662;28;20212;-69
2022/01/24 00:34:38;;;;;;;5.43;2.50;;;6.60;99.90;;;;;;5012359;28;20179;-69
2022/01/24 00:37:04;;;;;;;6.00;2.47;;;6.50;99.90;;;;;;5012274;28;20612;-71
2022/01/24 00:39:30;;;;;;;5.67;2.93;;;6.50;99.90;;;;;;5012087;28;20259;-70
2022/01/24 00:45:03;;;;;;;3.30;3.10;;;6.50;99.90;;;;;;5012457;28;20402;-69
2022/01/24 00:47:43;;;;;;;4.93;3.17;;;6.60;99.90;;;;;;5012319;28;20427;-69
2022/01/24 00:55:23;;;;;;;7.10;3.90;;;6.50;99.90;;;;;;4997007;28;20717;-69
2022/01/24 00:57:48;;;;;;;4.83;3.37;;;6.60;99.90;;;;;;4992425;28;20776;-69
2022/01/24 01:00:14;;;;;;;5.63;3.53;;;6.70;99.90;;;;;;5007809;28;20417;-69
2022/01/24 01:02:41;;;;;;;4.23;3.17;;;6.70;99.90;;;;;;5011851;28;20164;-69
2022/01/24 01:18:47;;;;;;;7.90;3.70;;;6.60;99.90;;;;;;5011976;28;20403;-69
2022/01/24 01:21:16;;;;;;;4.67;4.17;;;6.50;99.90;;;;;;4981086;28;20424;-70
2022/01/24 01:23:47;;;;;;;4.20;3.57;;;6.50;99.90;;;;;;5003456;28;20183;-70
2022/01/24 01:26:38;;;;;;;6.33;3.50;;;6.60;99.90;;;;;;5011354;28;20426;-72
2022/01/24 01:29:09;;;;;;;4.37;3.30;;;6.60;99.90;;;;;;5011246;28;20459;-69
2022/01/24 01:31:59;;;;;;;4.30;3.20;;;6.60;99.90;;;;;;4993100;28;20431;-68
2022/01/24 01:37:59;;;;;;;4.43;3.67;;;6.60;99.90;;;;;;5011240;28;20422;-68
2022/01/24 01:40:22;;;;;;;5.27;2.90;;;6.60;99.90;;;;;;5000404;28;20502;-69
2022/01/24 01:52:21;;;;;;;5.13;2.60;;;6.60;99.90;;;;;;5010886;28;20925;-69
2022/01/24 01:52:23;;;;;;;7.80;3.50;;;6.60;99.90;;;;;;5010820;28;20510;-69
2022/01/24 01:56:20;;;;;;;5.33;3.70;;;6.70;99.90;;;;;;5010846;28;20447;-68
2022/01/24 01:58:45;;;;;;;5.83;4.00;;;6.60;99.90;;;;;;5010832;28;20422;-69
2022/01/24 02:01:11;;;;;;;5.73;3.20;;;6.70;99.90;;;;;;5010880;28;20259;-68
2022/01/24 02:03:36;;;;;;;6.10;4.70;;;6.70;99.90;;;;;;5010644;28;20544;-70
2022/01/24 02:06:02;;;;;;;5.40;4.37;;;6.70;99.90;;;;;;5010748;28;20681;-69
2022/01/24 02:08:30;;;;;;;9.90;3.73;;;6.70;99.90;;;;;;5010838;28;20184;-70
2022/01/24 02:10:57;;;;;;;6.97;3.43;;;6.60;99.90;;;;;;5010815;28;20177;-69
2022/01/24 02:13:24;;;;;;;4.83;4.40;;;6.60;99.90;;;;;;5010684;28;20475;-68
2022/01/24 02:21:09;;;;;;;4.77;3.27;;;6.60;99.90;;;;;;5011587;28;20414;-69
2022/01/24 02:23:41;;;;;;;3.70;3.20;;;6.60;99.90;;;;;;5010711;28;20919;-69
2022/01/24 02:26:11;;;;;;;4.97;4.50;;;6.50;99.90;;;;;;5010792;28;20453;-68
2022/01/24 02:28:51;;;;;;;5.60;3.97;;;6.60;99.90;;;;;;5010670;28;21009;-68
2022/01/24 02:33:45;;;;;;;12.87;3.87;;;6.60;99.90;;;;;;5010902;28;20452;-70
2022/01/24 02:36:11;;;;;;;8.87;4.57;;;6.50;99.90;;;;;;5010931;28;21086;-70
2022/01/24 02:49:35;;;;;;;16.93;3.60;;;6.50;99.90;;;;;;5014311;28;20913;-70
2022/01/24 02:52:03;;;;;;;4.80;3.80;;;6.50;99.90;;;;;;5013993;28;20511;-70
2022/01/24 02:54:30;;;;;;;4.00;2.27;;;6.50;99.90;;;;;;5013983;28;20408;-70
2022/01/24 02:56:56;;;;;;;8.97;3.90;;;6.60;99.90;;;;;;5013575;28;20526;-69
2022/01/24 02:59:22;;;;;;;5.13;3.47;;;6.50;99.90;;;;;;4995165;28;20950;-69
2022/01/24 03:01:47;;;;;;;5.10;3.03;;;6.50;99.90;;;;;;5013914;28;20203;-69
2022/01/24 03:04:14;;;;;;;4.70;3.50;;;6.50;99.90;;;;;;5013818;28;20399;-69
2022/01/24 03:06:39;;;;;;;2.03;1.70;;;6.40;99.90;;;;;;5013644;28;20181;-69
2022/01/24 03:09:06;;;;;;;4.53;3.00;;;6.30;99.90;;;;;;5013429;28;20532;-69
2022/01/24 03:14:19;;;;;;;3.57;2.23;;;6.30;99.90;;;;;;5014075;28;20401;-69
2022/01/24 03:16:45;;;;;;;3.23;2.90;;;6.30;99.90;;;;;;5013918;28;20419;-70
2022/01/24 03:19:11;;;;;;;3.20;2.60;;;6.20;99.90;;;;;;5013711;28;20477;-70
2022/01/24 03:21:36;;;;;;;4.17;2.57;;;6.20;99.90;;;;;;5013726;28;20411;-69
2022/01/24 03:24:02;;;;;;;6.20;3.00;;;6.20;99.90;;;;;;5013555;28;20861;-70
2022/01/24 03:26:28;;;;;;;5.10;2.87;;;6.20;99.90;;;;;;5013593;28;20219;-69
2022/01/24 03:28:53;;;;;;;3.53;3.20;;;6.20;99.90;;;;;;5013516;28;20215;-70
2022/01/24 03:31:19;;;;;;;3.00;2.00;;;6.20;99.90;;;;;;5013740;28;20168;-70
2022/01/24 03:33:44;;;;;;;4.80;3.10;;;6.10;99.90;;;;;;5013711;28;20171;-69
2022/01/24 03:36:10;;;;;;;3.00;1.70;;;6.10;99.90;;;;;;5013213;28;20656;-68
2022/01/24 03:38:35;;;;;;;4.47;4.03;;;6.10;99.90;;;;;;5013502;28;20176;-69
2022/01/24 03:41:01;;;;;;;3.70;3.37;;;6.20;99.90;;;;;;5016576;28;20226;-69
2022/01/24 03:43:26;;;;;;;2.60;2.40;;;6.20;99.90;;;;;;5018048;28;20173;-70
2022/01/24 03:46:28;;;;;;;4.23;3.63;;;6.30;99.90;;;;;;5015099;28;20196;-69
2022/01/24 03:48:48;;;;;;;5.07;3.50;;;6.30;99.90;;;;;;5008685;28;20459;-69
2022/01/24 03:51:15;;;;;;;5.80;3.40;;;6.30;99.90;;;;;;5013133;28;20399;-69
2022/01/24 03:53:42;;;;;;;6.23;3.13;;;6.30;99.90;;;;;;5012548;28;20822;-69
2022/01/24 03:56:08;;;;;;;11.13;5.40;;;6.30;99.90;;;;;;5012615;28;20439;-70
2022/01/24 03:58:34;;;;;;;5.40;4.07;;;6.30;99.90;;;;;;5012966;28;20818;-70
2022/01/24 04:01:01;;;;;;;9.93;3.73;;;6.20;99.90;;;;;;5013222;28;20431;-69
2022/01/24 04:03:26;;;;;;;7.30;5.33;;;6.20;99.90;;;;;;5012665;28;20750;-69
2022/01/24 04:05:52;;;;;;;8.33;3.97;;;6.20;99.90;;;;;;5012691;28;20442;-70
2022/01/24 04:08:18;;;;;;;8.07;5.07;;;6.20;99.90;;;;;;5012815;28;20192;-69
2022/01/24 04:10:47;;;;;;;7.20;4.70;;;6.20;99.90;;;;;;5012817;28;20636;-69
2022/01/24 04:23:46;;;;;;;5.57;4.40;;;6.20;99.90;;;;;;5012708;28;20745;-70
2022/01/24 04:26:11;;;;;;;8.77;4.00;;;6.20;99.90;;;;;;5012013;28;20436;-70
2022/01/24 04:28:36;;;;;;;6.77;4.73;;;6.20;99.90;;;;;;5012179;28;20773;-70
2022/01/24 04:31:02;;;;;;;7.27;4.20;;;6.30;99.90;;;;;;5012191;28;20212;-69
2022/01/24 04:33:27;;;;;;;10.47;5.80;;;6.30;99.90;;;;;;5012151;28;20540;-70
2022/01/24 04:35:53;;;;;;;7.03;4.43;;;6.30;99.90;;;;;;5012164;28;20693;-69
2022/01/24 04:38:19;;;;;;;8.13;4.17;;;6.20;99.90;;;;;;5012053;28;20176;-70
2022/01/24 04:40:44;;;;;;;8.60;4.20;;;6.20;99.90;;;;;;5012525;28;20172;-69
2022/01/24 04:43:33;;;;;;;9.17;4.63;;;6.20;99.90;;;;;;5011941;28;20183;-70
2022/01/24 04:54:25;;;;;;;7.90;3.77;;;6.10;99.90;;;;;;5012415;28;20502;-70
2022/01/24 04:56:40;;;;;;;13.33;5.07;;;6.20;99.90;;;;;;5011662;28;20459;-71
2022/01/24 04:59:06;;;;;;;5.73;3.93;;;6.20;99.90;;;;;;5011733;28;20462;-71
2022/01/24 05:01:32;;;;;;;9.07;6.03;;;6.20;99.90;;;;;;5011542;28;20399;-70
2022/01/24 05:03:58;;;;;;;5.13;4.50;;;6.20;99.90;;;;;;5011559;28;20866;-69
2022/01/24 05:06:24;;;;;;;7.03;5.17;;;6.10;99.90;;;;;;5010749;28;20192;-70
2022/01/24 05:08:49;;;;;;;6.90;4.07;;;6.10;99.90;;;;;;5011566;28;20457;-69
2022/01/24 05:11:20;;;;;;;8.63;4.43;;;6.20;99.90;;;;;;4994009;28;20172;-70
2022/01/24 05:23:27;;;;;;;7.03;5.07;;;6.20;99.90;;;;;;5011326;28;20450;-69
2022/01/24 05:24:43;;;;;;;6.23;4.80;;;6.20;99.90;;;;;;5011183;28;20920;-69
2022/01/24 05:27:09;;;;;;;4.93;3.73;;;6.10;99.90;;;;;;5011254;28;20427;-70
2022/01/24 05:29:34;;;;;;;5.40;3.90;;;6.00;99.90;;;;;;5011274;28;20192;-70
2022/01/24 05:32:00;;;;;;;7.00;3.77;;;6.00;99.90;;;;;;5011250;28;20214;-69
2022/01/24 05:34:25;;;;;;;7.50;3.70;;;6.00;99.90;;;;;;4993433;28;20165;-69
2022/01/24 05:36:51;;;;;;;5.70;3.53;;;6.00;99.90;;;;;;5011026;28;20226;-69
2022/01/24 05:39:17;;;;;;;4.60;4.30;;;6.10;99.90;;;;;;5011264;28;20505;-69
2022/01/24 05:41:42;;;;;;;4.13;3.47;;;6.10;99.90;;;;;;5011134;28;20314;-68
2022/01/24 05:44:08;;;;;;;6.13;3.23;;;6.00;99.90;;;;;;5011060;28;20168;-69
2022/01/24 05:46:35;;;;;;;11.87;3.97;;;6.10;99.90;;;;;;5011076;28;20192;-69
2022/01/24 05:49:01;;;;;;;4.30;3.93;;;6.00;99.90;;;;;;4993595;28;20462;-70
2022/01/24 05:51:28;;;;;;;7.80;4.70;;;6.00;99.90;;;;;;5011023;28;20443;-70
2022/01/24 05:53:54;;;;;;;4.63;4.00;;;6.00;99.90;;;;;;5011112;28;20403;-69
2022/01/24 05:56:20;;;;;;;6.43;3.97;;;6.00;99.90;;;;;;5011237;28;20521;-69
2022/01/24 05:58:45;;;;;;;6.30;4.67;;;6.00;99.90;;;;;;5010895;28;20407;-69
2022/01/24 06:01:11;;;;;;;5.20;3.60;;;6.00;99.90;;;;;;5011117;28;20164;-70
2022/01/24 06:03:36;;;;;;;8.10;4.30;;;6.00;99.90;;;;;;5011270;28;20203;-70
2022/01/24 06:06:02;;;;;;;6.87;4.20;;;6.00;99.90;;;;;;5011246;28;20188;-69
2022/01/24 06:08:27;;;;;;;5.53;4.20;;;6.00;99.90;;;;;;5011226;28;20212;-69
2022/01/24 06:10:53;;;;;;;4.83;4.40;;;6.00;99.90;;;;;;5011415;28;20237;-69
2022/01/24 06:13:19;;;;;;;4.67;3.53;;;6.00;99.90;;;;;;5011110;28;20184;-69
2022/01/24 06:15:45;;;;;;;5.97;3.90;;;6.00;99.90;;;;;;5011121;28;20275;-69
2022/01/24 06:18:10;;;;;;;5.47;4.90;;;5.90;99.90;;;;;;5014287;28;20480;-70
2022/01/24 06:20:36;;;;;;;5.60;2.77;;;5.90;99.90;;;;;;5015471;28;20164;-69
2022/01/24 06:23:01;;;;;;;8.43;5.03;;;6.00;99.90;;;;;;5014794;28;20553;-69
2022/01/24 06:25:29;;;;;;;4.57;3.90;;;5.90;99.90;;;;;;5014675;28;20571;-69
2022/01/24 06:27:55;;;;;;;7.50;4.60;;;5.90;99.90;;;;;;5015061;28;20171;-70
2022/01/24 06:30:20;;;;;;;7.10;4.07;;;5.90;99.90;;;;;;5014851;28;20455;-70
2022/01/24 06:32:46;;;;;;;3.70;3.30;;;6.00;99.90;;;;;;5009492;28;20893;-69
2022/01/24 06:35:13;;;;;;;6.43;3.67;;;6.00;99.90;;;;;;5005216;28;20188;-70
2022/01/24 06:37:39;;;;;;;7.67;4.10;;;6.00;99.90;;;;;;5006840;28;20702;-70
2022/01/24 06:40:06;;;;;;;7.50;4.63;;;6.00;99.90;;;;;;5003727;28;20443;-69
2022/01/24 06:42:31;;;;;;;8.60;4.10;;;6.00;99.90;;;;;;5005020;28;20410;-69
2022/01/24 06:44:57;;;;;;;6.10;3.37;;;6.00;99.90;;;;;;5005103;28;20941;-69
2022/01/24 06:47:23;;;;;;;5.13;3.50;;;6.00;99.90;;;;;;5003591;28;20528;-69
2022/01/24 06:49:49;;;;;;;6.17;3.03;;;6.00;99.90;;;;;;5005686;28;20299;-69
2022/01/24 06:52:15;;;;;;;6.60;3.43;;;6.00;99.90;;;;;;5012047;28;20408;-70
2022/01/24 06:54:42;;;;;;;7.83;5.63;;;6.00;99.90;;;;;;5012326;28;20414;-72
2022/01/24 06:57:11;;;;;;;10.90;4.40;;;6.00;99.90;;;;;;5012199;28;20297;-70
2022/01/24 06:59:40;;;;;;;4.17;3.23;;;5.90;99.90;;;;;;5006875;28;20985;-72
2022/01/24 07:02:05;;;;;;;4.57;3.93;;;5.90;99.90;;;;;;5012189;28;20928;-70
2022/01/24 07:04:31;;;;;;;4.40;4.00;;;5.80;99.90;;;;;;5012343;28;20422;-70
2022/01/24 07:06:56;;;;;;;6.33;5.27;;;5.90;99.90;;;;;;5012242;28;20218;-71
2022/01/24 07:09:22;;;;;;;4.53;3.07;;;5.80;99.90;;;;;;5011913;28;20223;-71
2022/01/24 07:11:50;;;;;;;6.20;4.20;;;5.80;99.90;;;;;;5003599;28;20161;-70
2022/01/24 07:14:15;;;;;;;7.47;3.87;;;5.90;99.90;;;;;;5001523;28;20163;-70
2022/01/24 07:19:31;;;;;;;4.53;3.27;;;5.80;99.90;;;;;;5001011;28;20639;-70
2022/01/24 07:21:59;;;;;;;2.83;2.30;;;5.80;99.90;;;;;;5001039;28;20414;-70
2022/01/24 07:24:26;;;;;;;4.00;2.80;;;5.80;99.90;;;;;;5000974;28;20479;-71
2022/01/24 07:26:52;;;;;;;5.90;3.90;;;5.80;99.90;;;;;;5005980;28;20457;-70
2022/01/24 07:29:17;;;;;;;8.13;4.10;;;5.80;99.90;;;;;;5010961;28;20554;-71
2022/01/24 07:31:43;;;;;;;3.63;3.30;;;5.80;99.90;;;;;;5011946;28;20176;-71
2022/01/24 07:34:09;;;;;;;4.53;3.57;;;5.80;99.90;;;;;;5011927;28;20495;-72
2022/01/24 07:36:34;;;;;;;5.50;3.13;;;5.80;99.90;;;;;;5011916;28;20232;-70
2022/01/24 07:39:00;;;;;;;4.50;3.53;;;5.80;99.90;;;;;;5011791;28;20384;-69
2022/01/24 07:41:30;;;;;;;3.70;2.97;;;5.80;99.90;;;;;;5011613;28;20164;-70
2022/01/24 07:43:57;;;;;;;4.77;3.10;;;5.90;99.90;;;;;;5011539;28;20176;-70
2022/01/24 07:46:23;;;;;;;5.17;3.10;;;5.90;99.90;;;;;;5011321;28;20906;-69
2022/01/24 07:48:49;;;;;;;8.57;3.27;;;5.90;99.90;;;;;;5011317;28;20457;-69
2022/01/24 07:51:15;;;;;;;4.50;2.90;;;5.90;99.90;;;;;;5011288;28;20412;-69
2022/01/24 07:53:41;;;;;;;12.03;4.80;;;5.90;99.90;;;;;;5011127;28;20263;-69
2022/01/24 07:56:07;;;;;;;4.77;3.17;;;6.10;99.90;;;;;;5011213;28;20439;-70
2022/01/24 07:58:32;;;;;;;3.37;2.47;;;6.20;99.90;;;;;;5011452;28;20423;-70
2022/01/24 08:00:58;;;;;;;6.90;3.00;;;6.50;99.90;;;;;;5011191;28;20836;-69
2022/01/24 08:03:23;;;;;;;7.30;3.80;;;6.80;99.90;;;;;;5011213;28;20183;-69
2022/01/24 08:05:49;;;;;;;5.30;3.17;;;6.70;99.90;;;;;;5011022;28;20702;-69
2022/01/24 08:08:15;;;;;;;4.93;2.93;;;6.70;99.90;;;;;;5010896;28;20184;-69
2022/01/24 08:10:40;;;;;;;5.27;2.50;;;6.50;99.90;;;;;;5011085;28;20439;-69
2022/01/24 08:13:06;;;;;;;4.67;2.93;;;6.90;99.90;;;;;;5011866;28;20173;-70
2022/01/24 08:15:32;;;;;;;6.70;3.93;;;6.90;99.90;;;;;;5010719;28;20192;-69
2022/01/24 08:17:57;;;;;;;5.80;3.50;;;6.80;99.90;;;;;;5011052;28;20172;-69
2022/01/24 08:20:24;;;;;;;3.50;3.20;;;6.90;99.90;;;;;;5010919;28;20898;-69
2022/01/24 08:22:50;;;;;;;6.63;4.27;;;6.70;99.90;;;;;;5010719;28;20176;-69
2022/01/24 08:25:15;;;;;;;3.07;2.43;;;6.50;99.90;;;;;;5010549;28;20925;-70
2022/01/24 08:27:41;;;;;;;4.83;3.10;;;6.90;99.90;;;;;;5010530;28;20267;-70
2022/01/24 08:30:12;;;;;;;9.23;3.50;;;7.00;99.90;;;;;;5011070;28;20564;-70
2022/01/24 08:32:38;;;;;;;3.83;3.03;;;6.90;99.90;;;;;;5010528;28;20550;-70
2022/01/24 08:35:04;;;;;;;4.60;3.67;;;6.90;99.90;;;;;;5010314;28;20415;-70
2022/01/24 08:37:30;;;;;;;2.90;2.13;;;7.00;99.90;;;;;;5010352;28;20819;-69
2022/01/24 08:39:58;;;;;;;3.23;2.93;;;7.30;99.90;;;;;;5010332;28;20786;-69
2022/01/24 08:42:32;;;;;;;3.97;2.73;;;6.90;99.90;;;;;;5010575;28;20442;-68
2022/01/24 08:47:29;;;;;;;7.67;3.20;;;6.90;99.90;;;;;;5010438;28;20937;-68
2022/01/24 08:49:55;;;;;;;3.73;2.87;;;6.80;99.90;;;;;;5010293;28;20211;-68
2022/01/24 08:52:21;;;;;;;3.13;2.50;;;6.80;99.90;;;;;;5010279;28;20779;-70
2022/01/24 08:54:47;;;;;;;3.97;2.67;;;6.70;99.90;;;;;;5010058;28;20403;-70
2022/01/24 08:57:15;;;;;;;6.07;3.70;;;6.90;99.90;;;;;;5010176;28;20273;-69
2022/01/24 08:59:42;;;;;;;4.90;2.93;;;6.90;99.90;;;;;;5010409;28;20415;-69
2022/01/24 09:02:10;;;;;;;4.63;2.97;;;6.60;99.90;;;;;;5010304;28;20414;-69
2022/01/24 09:04:35;;;;;;;4.70;2.83;;;6.50;99.90;;;;;;5010118;28;20748;-69
2022/01/24 09:07:04;;;;;;;3.50;1.87;;;6.70;99.90;;;;;;5010046;28;20438;-70
2022/01/24 09:09:34;;;;;;;2.30;1.77;;;6.90;99.90;;;;;;5009887;28;20655;-69
2022/01/24 09:12:02;;;;;;;4.20;1.70;;;6.90;99.90;;;;;;5010392;28;20400;-69
2022/01/24 09:14:28;;;;;;;3.20;2.27;;;6.70;99.90;;;;;;5010227;28;20411;-70
2022/01/24 09:16:53;;;;;;;4.60;3.10;;;6.60;99.90;;;;;;5009815;28;20949;-69
2022/01/24 09:19:19;;;;;;;3.50;2.37;;;6.80;99.90;;;;;;5010443;28;20196;-70
2022/01/24 09:21:45;;;;;;;4.50;2.33;;;6.70;99.90;;;;;;5010180;28;20177;-71
2022/01/24 09:24:10;;;;;;;4.67;2.87;;;6.90;99.90;;;;;;5010062;28;20431;-70
2022/01/24 09:26:36;;;;;;;2.70;1.67;;;6.90;99.90;;;;;;5009851;28;20193;-70
2022/01/24 09:29:03;;;;;;;2.90;1.93;;;7.00;99.90;;;;;;5009754;28;20821;-70
2022/01/24 09:31:28;;;;;;;4.00;2.60;;;6.90;99.90;;;;;;5009885;28;20231;-69
2022/01/24 09:33:54;;;;;;;4.17;3.50;;;6.90;99.90;;;;;;5010081;28;20772;-70
2022/01/24 09:36:20;;;;;;;3.00;2.50;;;6.80;99.90;;;;;;5007479;28;20181;-70
2022/01/24 09:38:45;;;;;;;4.47;3.67;;;7.00;99.90;;;;;;5009770;28;20183;-72
2022/01/24 09:41:13;;;;;;;3.33;1.93;;;7.00;99.90;;;;;;5009992;28;20172;-70
2022/01/24 09:43:39;;;;;;;3.57;2.60;;;7.10;99.90;;;;;;5009813;28;20165;-72
2022/01/24 09:46:05;;;;;;;3.17;2.40;;;6.90;99.90;;;;;;5009424;28;20945;-71
2022/01/24 09:48:32;;;;;;;3.27;2.60;;;6.80;99.90;;;;;;5009411;28;20486;-70
2022/01/24 09:50:57;;;;;;;3.60;2.73;;;6.90;99.90;;;;;;4992287;28;20434;-71
2022/01/24 09:53:25;;;;;;;5.67;2.90;;;7.00;99.90;;;;;;5013661;28;20491;-72
2022/01/24 09:55:52;;;;;;;3.03;2.30;;;6.80;99.90;;;;;;5013439;28;20581;-71
2022/01/24 09:58:19;;;;;;;3.80;2.47;;;6.90;99.90;;;;;;5013548;28;20399;-72
2022/01/24 10:00:45;;;;;;;4.20;2.87;;;7.00;99.90;;;;;;5013574;28;20775;-71
2022/01/24 10:03:14;;;;;;;4.90;3.00;;;7.10;99.90;;;;;;5013507;28;20409;-70
2022/01/24 10:05:42;;;;;;;4.60;3.07;;;6.90;99.90;;;;;;5013088;28;20423;-71
2022/01/24 10:08:13;;;;;;;4.63;3.17;;;6.90;99.90;;;;;;5014697;28;20408;-71
2022/01/24 10:10:48;;;;;;;4.73;2.70;;;6.80;99.90;;;;;;5015291;28;20407;-71
2022/01/24 10:16:35;;;;;;;4.63;2.10;;;7.10;99.90;;;;;;5015269;28;20988;-70
2022/01/24 10:19:21;;;;;;;6.20;2.63;;;7.00;99.90;;;;;;5015287;28;20399;-70
2022/01/24 10:21:53;;;;;;;4.30;2.67;;;7.00;99.90;;;;;;5015017;28;20481;-70
2022/01/24 10:24:41;;;;;;;4.10;2.70;;;6.90;99.90;;;;;;5015060;28;20411;-71
2022/01/24 10:27:11;;;;;;;6.27;2.80;;;6.80;99.90;;;;;;5012870;28;20802;-71
2022/01/24 10:29:45;;;;;;;4.03;2.63;;;6.60;99.90;;;;;;5014459;28;20973;-71
2022/01/24 10:32:33;;;;;;;2.30;2.10;;;6.70;99.90;;;;;;5014887;28;20824;-70
2022/01/24 10:35:30;;;;;;;2.33;1.53;;;6.80;99.90;;;;;;5015181;28;20446;-71
2022/01/24 10:38:19;;;;;;;5.43;2.73;;;7.00;99.90;;;;;;5015710;28;20419;-71
2022/01/24 10:40:54;;;;;;;2.70;2.00;;;6.80;99.90;;;;;;5015717;28;20399;-72
2022/01/24 10:43:25;;;;;;;5.83;3.50;;;6.70;99.90;;;;;;5015693;28;20383;-70
2022/01/24 10:45:52;;;;;;;7.37;3.53;;;6.90;99.90;;;;;;5021106;28;20419;-71
2022/01/24 10:48:28;;;;;;;2.97;2.43;;;6.90;99.90;;;;;;5011462;28;20415;-73
2022/01/24 10:51:11;;;;;;;5.80;2.90;;;6.70;99.90;;;;;;5027226;28;20406;-70
2022/01/24 10:53:40;;;;;;;3.80;2.57;;;6.70;99.90;;;;;;5023824;28;20414;-72
2022/01/24 10:56:26;;;;;;;6.03;2.90;;;6.80;99.90;;;;;;5018986;28;20455;-72
2022/01/24 10:58:53;;;;;;;6.13;3.73;;;7.00;99.90;;;;;;5022567;28;20395;-69
2022/01/24 11:01:25;;;;;;;3.63;2.50;;;7.20;99.90;;;;;;5015564;28;20430;-70
2022/01/24 11:04:03;;;;;;;3.50;2.43;;;7.10;99.90;;;;;;4996897;28;20406;-69
2022/01/24 11:06:32;;;;;;;3.33;2.83;;;6.90;99.90;;;;;;5014086;28;20438;-69
2022/01/24 11:09:12;;;;;;;4.30;3.40;;;6.90;99.90;;;;;;4993109;28;20459;-68
2022/01/24 11:11:38;;;;;;;3.80;2.20;;;6.90;99.90;;;;;;5007026;28;20407;-69
2022/01/24 11:14:04;;;;;;;4.20;2.50;;;7.00;99.90;;;;;;5016404;28;20421;-69
2022/01/24 11:16:30;;;;;;;5.27;3.77;;;7.00;99.90;;;;;;5012449;28;20192;-69
2022/01/24 11:18:56;;;;;;;2.37;2.13;;;6.90;99.90;;;;;;5014607;28;20411;-69
2022/01/24 11:21:22;;;;;;;4.40;2.57;;;6.90;99.90;;;;;;5007025;28;20180;-69
2022/01/24 11:23:48;;;;;;;4.40;2.40;;;6.80;99.90;;;;;;5000743;28;20196;-69
2022/01/24 11:26:14;;;;;;;2.60;2.40;;;6.80;99.90;;;;;;4998464;28;20427;-69
2022/01/24 11:28:40;;;;;;;3.10;2.33;;;7.00;99.90;;;;;;4999397;28;20467;-70
2022/01/24 11:31:18;;;;;;;6.37;2.93;;;6.70;99.90;;;;;;4998937;28;20973;-71
2022/01/24 11:33:54;;;;;;;3.13;2.33;;;6.60;99.90;;;;;;4995402;28;20531;-70
2022/01/24 11:36:38;;;;;;;2.83;2.13;;;6.80;99.90;;;;;;4995184;28;20505;-70
2022/01/24 11:39:05;;;;;;;2.70;2.30;;;6.60;99.90;;;;;;4995480;28;20420;-73
2022/01/24 11:41:35;;;;;;;2.77;1.57;;;6.50;99.90;;;;;;4995159;28;20906;-69
2022/01/24 11:44:10;;;;;;;4.40;1.87;;;6.50;99.90;;;;;;4995337;28;20806;-70
2022/01/24 11:46:48;;;;;;;2.00;1.80;;;6.60;99.90;;;;;;4997326;28;20446;-70
2022/01/24 11:49:27;;;;;;;1.83;1.60;;;6.50;99.90;;;;;;5012129;28;20450;-70
2022/01/24 11:52:18;;;;;;;3.63;3.17;;;6.40;99.90;;;;;;5015923;28;20414;-70
2022/01/24 11:54:46;;;;;;;4.20;2.53;;;6.30;99.90;;;;;;5009649;28;20403;-69
2022/01/24 11:57:24;;;;;;;2.60;2.07;;;6.20;99.90;;;;;;5008187;28;20470;-69
2022/01/24 12:00:09;;;;;;;2.30;2.10;;;6.30;99.90;;;;;;5000561;28;20851;-69
2022/01/24 12:02:40;;;;;;;10.20;5.37;;;6.30;99.90;;;;;;4985086;28;20423;-70
2022/01/24 12:05:15;;;;;;;6.00;3.57;;;6.30;99.90;;;;;;4996198;28;20404;-69
2022/01/24 12:08:02;;;;;;;3.00;2.10;;;6.30;99.90;;;;;;4995662;28;20403;-70
2022/01/24 12:10:40;;;;;;;1.87;1.77;;;6.20;99.90;;;;;;5011201;28;20605;-70
2022/01/24 12:13:26;;;;;;;5.60;4.10;;;6.20;99.90;;;;;;5011267;28;20451;-70
2022/01/24 12:15:57;;;;;;;2.43;1.70;;;6.20;99.90;;;;;;5020306;28;20473;-70
2022/01/24 12:18:27;;;;;;;3.27;3.03;;;6.30;99.90;;;;;;5021064;28;20471;-72
2022/01/24 12:21:01;;;;;;;3.20;1.50;;;6.00;99.90;;;;;;5016069;28;20780;-71
2022/01/24 12:23:36;;;;;;;3.57;2.07;;;6.00;99.90;;;;;;4994813;28;20408;-70
2022/01/24 12:26:09;;;;;;;3.10;2.50;;;6.20;99.90;;;;;;4992077;28;20483;-70
2022/01/24 12:28:44;;;;;;;2.60;2.30;;;6.20;99.90;;;;;;4992045;28;20471;-70
2022/01/24 12:31:29;;;;;;;2.70;1.70;;;6.10;99.90;;;;;;4991789;28;20412;-71
2022/01/24 12:33:55;;;;;;;2.90;2.37;;;6.20;99.90;;;;;;4992144;28;20408;-69
2022/01/24 12:36:48;;;;;;;4.33;1.70;;;6.00;99.90;;;;;;4991958;28;20427;-69
2022/01/24 12:39:20;;;;;;;4.47;2.03;;;6.00;99.90;;;;;;5010780;28;20184;-70
2022/01/24 12:41:58;;;;;;;3.57;2.53;;;6.00;99.90;;;;;;5012192;28;20399;-68
2022/01/24 12:47:04;;;;;;;1.87;1.40;;;5.90;99.90;;;;;;5012194;28;20933;-69
2022/01/24 12:49:30;;;;;;;6.07;3.47;;;6.10;99.90;;;;;;5008670;28;20757;-69
2022/01/24 12:52:09;;;;;;;3.00;2.27;;;5.90;99.90;;;;;;5004750;28;20886;-68
2022/01/24 12:54:37;;;;;;;3.13;2.13;;;6.00;99.90;;;;;;5011373;28;20411;-69
2022/01/24 12:57:06;;;;;;;5.00;3.60;;;6.00;99.90;;;;;;5001768;28;20530;-70
2022/01/24 12:59:33;;;;;;;2.70;1.70;;;6.00;99.90;;;;;;4999457;28;20419;-69
2022/01/24 13:02:04;;;;;;;4.60;3.17;;;5.90;99.90;;;;;;5015575;28;20415;-72
2022/01/24 13:04:38;;;;;;;3.40;2.80;;;5.90;99.90;;;;;;5013125;28;20407;-69
2022/01/24 13:07:08;;;;;;;3.60;2.30;;;6.00;99.90;;;;;;5012408;28;20500;-68
2022/01/24 13:09:37;;;;;;;2.83;1.67;;;6.00;99.90;;;;;;5015953;28;20463;-69
2022/01/24 13:12:08;;;;;;;2.20;1.73;;;5.90;99.90;;;;;;4996622;28;20974;-70
2022/01/24 13:14:44;;;;;;;2.73;1.97;;;5.90;99.90;;;;;;4995164;28;20403;-70
2022/01/24 13:22:56;;;;;;;3.43;2.33;;;5.80;99.90;;;;;;5012710;28;20418;-70
2022/01/24 13:25:25;;;;;;;5.13;2.40;;;5.80;99.90;;;;;;4996077;28;20432;-70
2022/01/24 13:27:57;;;;;;;3.53;3.00;;;5.90;99.90;;;;;;4974615;28;20416;-70
2022/01/24 13:30:41;;;;;;;5.03;2.67;;;6.00;99.90;;;;;;5000213;28;20459;-70
2022/01/24 13:33:12;;;;;;;4.90;2.90;;;5.90;99.90;;;;;;5011827;28;20411;-73
2022/01/24 13:35:40;;;;;;;4.50;2.47;;;6.00;99.90;;;;;;4995504;28;20450;-69
2022/01/24 13:38:15;;;;;;;2.93;2.10;;;6.00;99.90;;;;;;4995948;28;20399;-70
2022/01/24 13:40:56;;;;;;;3.60;3.07;;;6.00;99.90;;;;;;5013326;28;20410;-69
2022/01/24 13:43:36;;;;;;;2.53;1.90;;;6.10;99.90;;;;;;5013268;28;20465;-68
2022/01/24 13:46:16;;;;;;;2.87;2.50;;;6.00;99.90;;;;;;5012778;28;20431;-69
2022/01/24 13:48:55;;;;;;;2.87;2.13;;;5.80;99.90;;;;;;5013209;28;20447;-69
2022/01/24 13:51:23;;;;;;;4.07;2.77;;;5.70;99.90;;;;;;4993541;28;20396;-69
2022/01/24 13:53:51;;;;;;;4.80;3.83;;;5.80;99.90;;;;;;4993801;28;20455;-69
2022/01/24 13:56:34;;;;;;;9.03;3.57;;;5.80;99.90;;;;;;4993237;28;20450;-70
2022/01/24 13:59:02;;;;;;;6.80;3.00;;;5.70;99.90;;;;;;4975616;28;20474;-70
2022/01/24 14:01:28;;;;;;;3.10;2.90;;;5.80;99.90;;;;;;4993729;28;20458;-69
2022/01/24 14:04:04;;;;;;;4.80;2.40;;;5.70;99.90;;;;;;4993349;28;20408;-70
2022/01/24 14:06:34;;;;;;;5.07;3.07;;;5.70;99.90;;;;;;4993615;28;20192;-70
2022/01/24 14:09:12;;;;;;;2.00;1.90;;;5.80;99.90;;;;;;4998092;28;20450;-69
2022/01/24 14:11:55;;;;;;;3.73;2.40;;;5.80;99.90;;;;;;4996520;28;20414;-69
2022/01/24 14:14:29;;;;;;;4.17;2.40;;;5.80;99.90;;;;;;5013531;28;20409;-70
2022/01/24 14:17:05;;;;;;;3.67;2.07;;;5.80;99.90;;;;;;5013556;28;20434;-69
2022/01/24 14:19:35;;;;;;;5.30;3.90;;;5.70;99.90;;;;;;5022425;28;20412;-69
2022/01/24 14:22:19;;;;;;;3.73;2.10;;;5.70;99.90;;;;;;5013396;28;20407;-70
2022/01/24 14:24:55;;;;;;;2.33;1.73;;;5.60;99.90;;;;;;5012875;28;20423;-68
2022/01/24 14:27:41;;;;;;;6.20;4.03;;;5.60;99.90;;;;;;5013333;28;20465;-68
2022/01/24 14:30:21;;;;;;;3.47;1.90;;;5.60;99.90;;;;;;5013256;28;20455;-69
2022/01/24 14:32:59;;;;;;;2.33;2.13;;;5.60;99.90;;;;;;5012370;28;20399;-71
2022/01/24 14:35:25;;;;;;;6.00;3.67;;;5.60;99.90;;;;;;5012781;28;20423;-70
2022/01/24 14:37:53;;;;;;;4.77;2.53;;;5.60;99.90;;;;;;5013656;28;20851;-71
2022/01/24 14:40:44;;;;;;;4.30;3.17;;;5.60;99.90;;;;;;5016482;28;20407;-70
2022/01/24 14:45:54;;;;;;;4.50;3.77;;;5.60;99.90;;;;;;5023525;28;20446;-72
2022/01/24 14:48:20;;;;;;;4.43;2.03;;;5.50;99.90;;;;;;5025676;28;21176;-70
2022/01/24 14:50:45;;;;;;;3.87;3.17;;;5.40;99.90;;;;;;5023251;28;20627;-69
2022/01/24 14:53:15;;;;;;;4.30;3.30;;;5.40;99.90;;;;;;5017019;28;20242;-70
2022/01/24 14:55:41;;;;;;;5.03;2.90;;;5.40;99.90;;;;;;5016432;28;20301;-70
2022/01/24 14:58:06;;;;;;;4.27;3.03;;;5.40;99.90;;;;;;5017717;28;20399;-69
2022/01/24 15:00:33;;;;;;;4.57;2.70;;;5.40;99.90;;;;;;5018017;28;20168;-69
2022/01/24 15:02:58;;;;;;;5.57;3.60;;;5.40;99.90;;;;;;5024351;28;20694;-68
2022/01/24 15:05:24;;;;;;;5.57;3.40;;;5.40;99.90;;;;;;5017700;28;20518;-69
2022/01/24 15:07:50;;;;;;;4.77;2.50;;;5.50;99.90;;;;;;5019037;28;20211;-69